sensor_id;sensor_type;location;lat;lon;timestamp;temperature;humidity
67194;DHT22;54121;53.508;49.422;2022-09-01T00:02:20;34.30;23.40
67194;DHT22;54121;53.508;49.422;2022-09-01T00:04:52;34.00;23.60
67194;DHT22;54121;53.508;49.422;2022-09-01T00:07:29;34.10;23.50
67194;DHT22;54121;53.508;49.422;2022-09-01T00:10:05;34.00;23.50
67194;DHT22;54121;53.508;49.422;2022-09-01T00:12:38;34.00;23.00
67194;DHT22;54121;53.508;49.422;2022-09-01T00:15:11;34.10;22.90
67194;DHT22;54121;53.508;49.422;2022-09-01T00:17:43;34.00;22.90
67194;DHT22;54121;53.508;49.422;2022-09-01T00:20:15;34.10;22.70
67194;DHT22;54121;53.508;49.422;2022-09-01T00:22:47;34.10;22.60
67194;DHT22;54121;53.508;49.422;2022-09-01T00:25:20;34.10;22.90
67194;DHT22;54121;53.508;49.422;2022-09-01T00:27:52;34.00;23.10
67194;DHT22;54121;53.508;49.422;2022-09-01T00:30:24;33.90;23.60
67194;DHT22;54121;53.508;49.422;2022-09-01T00:32:55;33.90;23.70
67194;DHT22;54121;53.508;49.422;2022-09-01T00:35:27;33.80;24.00
67194;DHT22;54121;53.508;49.422;2022-09-01T00:37:59;33.90;24.00
67194;DHT22;54121;53.508;49.422;2022-09-01T00:40:30;33.80;24.10
67194;DHT22;54121;53.508;49.422;2022-09-01T00:43:14;33.80;24.20
67194;DHT22;54121;53.508;49.422;2022-09-01T00:45:48;33.60;24.40
67194;DHT22;54121;53.508;49.422;2022-09-01T00:48:22;33.60;24.60
67194;DHT22;54121;53.508;49.422;2022-09-01T00:50:54;33.30;24.90
67194;DHT22;54121;53.508;49.422;2022-09-01T00:53:27;33.60;24.60
67194;DHT22;54121;53.508;49.422;2022-09-01T00:55:59;33.70;24.60
67194;DHT22;54121;53.508;49.422;2022-09-01T00:58:32;33.60;24.70
67194;DHT22;54121;53.508;49.422;2022-09-01T01:01:07;33.70;24.60
67194;DHT22;54121;53.508;49.422;2022-09-01T01:03:39;33.60;24.80
67194;DHT22;54121;53.508;49.422;2022-09-01T01:06:17;33.70;24.80
67194;DHT22;54121;53.508;49.422;2022-09-01T01:08:50;33.60;24.80
67194;DHT22;54121;53.508;49.422;2022-09-01T01:11:31;33.60;24.90
67194;DHT22;54121;53.508;49.422;2022-09-01T01:14:06;33.70;24.90
67194;DHT22;54121;53.508;49.422;2022-09-01T01:16:44;33.60;24.90
67194;DHT22;54121;53.508;49.422;2022-09-01T01:19:31;33.50;25.10
67194;DHT22;54121;53.508;49.422;2022-09-01T01:22:35;33.50;25.30
67194;DHT22;54121;53.508;49.422;2022-09-01T01:25:54;33.50;25.10
67194;DHT22;54121;53.508;49.422;2022-09-01T01:28:33;33.50;25.30
67194;DHT22;54121;53.508;49.422;2022-09-01T01:31:08;33.40;25.20
67194;DHT22;54121;53.508;49.422;2022-09-01T01:33:46;33.50;25.20
67194;DHT22;54121;53.508;49.422;2022-09-01T01:36:31;33.60;25.10
67194;DHT22;54121;53.508;49.422;2022-09-01T01:39:16;33.50;25.00
67194;DHT22;54121;53.508;49.422;2022-09-01T01:41:48;33.40;25.00
67194;DHT22;54121;53.508;49.422;2022-09-01T01:44:23;33.50;24.90
67194;DHT22;54121;53.508;49.422;2022-09-01T01:46:58;33.50;24.80
67194;DHT22;54121;53.508;49.422;2022-09-01T01:49:30;33.50;24.90
67194;DHT22;54121;53.508;49.422;2022-09-01T01:52:02;33.20;25.40
67194;DHT22;54121;53.508;49.422;2022-09-01T01:54:35;33.20;25.60
67194;DHT22;54121;53.508;49.422;2022-09-01T01:57:08;33.40;25.30
67194;DHT22;54121;53.508;49.422;2022-09-01T01:59:41;33.60;25.10
67194;DHT22;54121;53.508;49.422;2022-09-01T02:02:12;33.40;25.20
67194;DHT22;54121;53.508;49.422;2022-09-01T02:04:44;33.20;25.50
67194;DHT22;54121;53.508;49.422;2022-09-01T02:07:16;33.20;25.50
67194;DHT22;54121;53.508;49.422;2022-09-01T02:09:48;33.30;25.40
67194;DHT22;54121;53.508;49.422;2022-09-01T02:12:20;33.20;25.40
67194;DHT22;54121;53.508;49.422;2022-09-01T02:14:55;33.20;25.40
67194;DHT22;54121;53.508;49.422;2022-09-01T02:17:27;32.90;25.60
67194;DHT22;54121;53.508;49.422;2022-09-01T02:19:59;33.00;25.60
67194;DHT22;54121;53.508;49.422;2022-09-01T02:22:31;33.10;25.40
67194;DHT22;54121;53.508;49.422;2022-09-01T02:25:04;33.50;25.00
67194;DHT22;54121;53.508;49.422;2022-09-01T02:27:36;33.70;24.80
67194;DHT22;54121;53.508;49.422;2022-09-01T02:30:10;33.90;24.50
67194;DHT22;54121;53.508;49.422;2022-09-01T02:32:43;34.00;24.20
67194;DHT22;54121;53.508;49.422;2022-09-01T02:35:14;34.30;24.00
67194;DHT22;54121;53.508;49.422;2022-09-01T02:37:46;34.10;23.90
67194;DHT22;54121;53.508;49.422;2022-09-01T02:40:21;34.40;23.70
67194;DHT22;54121;53.508;49.422;2022-09-01T02:42:53;34.40;23.70
67194;DHT22;54121;53.508;49.422;2022-09-01T02:45:26;34.60;23.30
67194;DHT22;54121;53.508;49.422;2022-09-01T02:47:59;34.70;23.20
67194;DHT22;54121;53.508;49.422;2022-09-01T02:50:31;34.70;23.20
67194;DHT22;54121;53.508;49.422;2022-09-01T02:53:04;34.50;23.80
67194;DHT22;54121;53.508;49.422;2022-09-01T02:55:41;34.70;23.60
67194;DHT22;54121;53.508;49.422;2022-09-01T02:58:13;35.10;23.20
67194;DHT22;54121;53.508;49.422;2022-09-01T03:00:55;35.20;23.20
67194;DHT22;54121;53.508;49.422;2022-09-01T03:03:27;35.30;22.90
67194;DHT22;54121;53.508;49.422;2022-09-01T03:05:59;35.30;22.90
67194;DHT22;54121;53.508;49.422;2022-09-01T03:08:31;35.60;22.50
67194;DHT22;54121;53.508;49.422;2022-09-01T03:11:09;35.80;22.20
67194;DHT22;54121;53.508;49.422;2022-09-01T03:13:42;35.70;22.10
67194;DHT22;54121;53.508;49.422;2022-09-01T03:16:14;35.40;22.80
67194;DHT22;54121;53.508;49.422;2022-09-01T03:18:46;36.10;21.90
67194;DHT22;54121;53.508;49.422;2022-09-01T03:21:20;36.50;21.40
67194;DHT22;54121;53.508;49.422;2022-09-01T03:23:52;36.30;21.50
67194;DHT22;54121;53.508;49.422;2022-09-01T03:26:24;36.70;21.00
67194;DHT22;54121;53.508;49.422;2022-09-01T03:28:57;36.50;20.90
67194;DHT22;54121;53.508;49.422;2022-09-01T03:31:30;36.90;20.50
67194;DHT22;54121;53.508;49.422;2022-09-01T03:34:03;36.90;20.50
67194;DHT22;54121;53.508;49.422;2022-09-01T03:36:36;36.70;20.60
67194;DHT22;54121;53.508;49.422;2022-09-01T03:39:08;36.70;20.70
67194;DHT22;54121;53.508;49.422;2022-09-01T03:41:40;36.80;20.50
67194;DHT22;54121;53.508;49.422;2022-09-01T03:44:13;36.80;20.50
67194;DHT22;54121;53.508;49.422;2022-09-01T03:46:46;36.40;21.00
67194;DHT22;54121;53.508;49.422;2022-09-01T03:49:18;36.80;20.50
67194;DHT22;54121;53.508;49.422;2022-09-01T03:51:55;37.00;20.30
67194;DHT22;54121;53.508;49.422;2022-09-01T03:54:27;37.40;19.70
67194;DHT22;54121;53.508;49.422;2022-09-01T03:57:00;37.30;19.80
67194;DHT22;54121;53.508;49.422;2022-09-01T03:59:32;37.40;19.70
67194;DHT22;54121;53.508;49.422;2022-09-01T04:02:04;37.40;19.80
67194;DHT22;54121;53.508;49.422;2022-09-01T04:04:36;37.50;19.60
67194;DHT22;54121;53.508;49.422;2022-09-01T04:07:07;37.60;19.40
67194;DHT22;54121;53.508;49.422;2022-09-01T04:09:39;37.90;19.20
67194;DHT22;54121;53.508;49.422;2022-09-01T04:12:12;38.50;18.80
67194;DHT22;54121;53.508;49.422;2022-09-01T04:14:46;38.60;18.70
67194;DHT22;54121;53.508;49.422;2022-09-01T04:17:18;39.10;18.10
67194;DHT22;54121;53.508;49.422;2022-09-01T04:20:13;39.50;17.60
67194;DHT22;54121;53.508;49.422;2022-09-01T04:22:46;40.10;17.00
67194;DHT22;54121;53.508;49.422;2022-09-01T04:25:19;40.00;16.70
67194;DHT22;54121;53.508;49.422;2022-09-01T04:27:58;40.40;16.40
67194;DHT22;54121;53.508;49.422;2022-09-01T04:30:30;40.70;16.10
67194;DHT22;54121;53.508;49.422;2022-09-01T04:33:02;41.10;15.80
67194;DHT22;54121;53.508;49.422;2022-09-01T04:35:38;41.50;16.10
67194;DHT22;54121;53.508;49.422;2022-09-01T04:38:10;41.80;15.00
67194;DHT22;54121;53.508;49.422;2022-09-01T04:40:43;42.00;14.70
67194;DHT22;54121;53.508;49.422;2022-09-01T04:43:14;42.10;14.60
67194;DHT22;54121;53.508;49.422;2022-09-01T04:45:47;42.10;14.50
67194;DHT22;54121;53.508;49.422;2022-09-01T04:48:20;42.60;14.10
67194;DHT22;54121;53.508;49.422;2022-09-01T04:50:52;43.10;13.80
67194;DHT22;54121;53.508;49.422;2022-09-01T04:53:26;42.50;13.40
67194;DHT22;54121;53.508;49.422;2022-09-01T04:56:03;42.20;14.30
67194;DHT22;54121;53.508;49.422;2022-09-01T04:58:35;43.00;13.30
67194;DHT22;54121;53.508;49.422;2022-09-01T05:01:15;43.50;12.90
67194;DHT22;54121;53.508;49.422;2022-09-01T05:03:48;44.00;12.40
67194;DHT22;54121;53.508;49.422;2022-09-01T05:06:48;44.20;12.50
67194;DHT22;54121;53.508;49.422;2022-09-01T05:09:20;44.20;12.30
67194;DHT22;54121;53.508;49.422;2022-09-01T05:11:52;44.50;11.80
67194;DHT22;54121;53.508;49.422;2022-09-01T05:14:24;44.90;11.70
67194;DHT22;54121;53.508;49.422;2022-09-01T05:16:57;45.40;11.30
67194;DHT22;54121;53.508;49.422;2022-09-01T05:19:30;45.60;11.00
67194;DHT22;54121;53.508;49.422;2022-09-01T05:22:03;44.70;11.60
67194;DHT22;54121;53.508;49.422;2022-09-01T05:24:36;45.50;10.90
67194;DHT22;54121;53.508;49.422;2022-09-01T05:27:07;46.30;10.50
67194;DHT22;54121;53.508;49.422;2022-09-01T05:29:40;46.20;10.60
67194;DHT22;54121;53.508;49.422;2022-09-01T05:32:12;46.50;10.50
67194;DHT22;54121;53.508;49.422;2022-09-01T05:34:44;46.80;10.50
67194;DHT22;54121;53.508;49.422;2022-09-01T05:37:16;46.80;10.70
67194;DHT22;54121;53.508;49.422;2022-09-01T05:39:48;47.30;10.70
67194;DHT22;54121;53.508;49.422;2022-09-01T05:42:20;47.60;9.90
67194;DHT22;54121;53.508;49.422;2022-09-01T05:44:52;46.90;10.40
67194;DHT22;54121;53.508;49.422;2022-09-01T05:47:23;47.50;10.00
67194;DHT22;54121;53.508;49.422;2022-09-01T05:49:56;48.20;9.40
67194;DHT22;54121;53.508;49.422;2022-09-01T05:52:32;48.30;9.00
67194;DHT22;54121;53.508;49.422;2022-09-01T05:55:05;48.60;8.90
67194;DHT22;54121;53.508;49.422;2022-09-01T05:57:39;47.80;9.20
67194;DHT22;54121;53.508;49.422;2022-09-01T06:00:12;48.20;8.90
67194;DHT22;54121;53.508;49.422;2022-09-01T06:02:45;48.20;8.70
67194;DHT22;54121;53.508;49.422;2022-09-01T06:05:17;47.80;9.10
67194;DHT22;54121;53.508;49.422;2022-09-01T06:07:49;48.00;8.80
67194;DHT22;54121;53.508;49.422;2022-09-01T06:10:21;46.40;9.60
67194;DHT22;54121;53.508;49.422;2022-09-01T06:12:53;47.60;9.00
67194;DHT22;54121;53.508;49.422;2022-09-01T06:15:25;48.20;8.50
67194;DHT22;54121;53.508;49.422;2022-09-01T06:17:59;47.40;9.10
67194;DHT22;54121;53.508;49.422;2022-09-01T06:20:32;47.00;9.50
67194;DHT22;54121;53.508;49.422;2022-09-01T06:23:04;47.10;9.40
67194;DHT22;54121;53.508;49.422;2022-09-01T06:25:37;47.30;8.80
67194;DHT22;54121;53.508;49.422;2022-09-01T06:28:09;47.30;9.10
67194;DHT22;54121;53.508;49.422;2022-09-01T06:30:43;46.70;9.60
67194;DHT22;54121;53.508;49.422;2022-09-01T06:33:16;46.90;9.20
67194;DHT22;54121;53.508;49.422;2022-09-01T06:35:49;46.50;9.70
67194;DHT22;54121;53.508;49.422;2022-09-01T06:38:22;45.70;10.10
67194;DHT22;54121;53.508;49.422;2022-09-01T06:41:00;46.40;9.60
67194;DHT22;54121;53.508;49.422;2022-09-01T06:43:34;46.80;9.40
67194;DHT22;54121;53.508;49.422;2022-09-01T06:46:07;46.70;9.50
67194;DHT22;54121;53.508;49.422;2022-09-01T06:48:40;46.90;9.20
67194;DHT22;54121;53.508;49.422;2022-09-01T06:51:19;46.70;9.30
67194;DHT22;54121;53.508;49.422;2022-09-01T06:53:51;46.90;9.40
67194;DHT22;54121;53.508;49.422;2022-09-01T06:56:28;46.70;9.50
67194;DHT22;54121;53.508;49.422;2022-09-01T06:59:02;46.50;9.80
67194;DHT22;54121;53.508;49.422;2022-09-01T07:01:36;46.50;9.70
67194;DHT22;54121;53.508;49.422;2022-09-01T07:04:09;46.40;9.90
67194;DHT22;54121;53.508;49.422;2022-09-01T07:06:41;46.40;9.80
67194;DHT22;54121;53.508;49.422;2022-09-01T07:09:13;45.60;10.40
67194;DHT22;54121;53.508;49.422;2022-09-01T07:11:46;45.60;10.70
67194;DHT22;54121;53.508;49.422;2022-09-01T07:14:18;45.80;10.20
67194;DHT22;54121;53.508;49.422;2022-09-01T07:16:49;46.10;10.20
67194;DHT22;54121;53.508;49.422;2022-09-01T07:19:21;46.20;10.10
67194;DHT22;54121;53.508;49.422;2022-09-01T07:21:53;45.90;10.40
67194;DHT22;54121;53.508;49.422;2022-09-01T07:24:25;46.00;10.70
67194;DHT22;54121;53.508;49.422;2022-09-01T07:26:58;46.00;10.70
67194;DHT22;54121;53.508;49.422;2022-09-01T07:29:30;46.10;10.50
67194;DHT22;54121;53.508;49.422;2022-09-01T07:32:03;45.60;10.70
67194;DHT22;54121;53.508;49.422;2022-09-01T07:34:35;45.40;10.90
67194;DHT22;54121;53.508;49.422;2022-09-01T07:37:07;46.00;10.70
67194;DHT22;54121;53.508;49.422;2022-09-01T07:39:39;46.50;10.50
67194;DHT22;54121;53.508;49.422;2022-09-01T07:42:18;46.50;10.40
67194;DHT22;54121;53.508;49.422;2022-09-01T07:44:50;45.60;10.70
67194;DHT22;54121;53.508;49.422;2022-09-01T07:47:22;44.80;11.20
67194;DHT22;54121;53.508;49.422;2022-09-01T07:49:55;45.20;10.80
67194;DHT22;54121;53.508;49.422;2022-09-01T07:52:26;46.00;10.70
67194;DHT22;54121;53.508;49.422;2022-09-01T07:54:59;46.20;10.10
67194;DHT22;54121;53.508;49.422;2022-09-01T07:57:31;46.40;9.90
67194;DHT22;54121;53.508;49.422;2022-09-01T08:00:04;46.10;10.20
67194;DHT22;54121;53.508;49.422;2022-09-01T08:02:37;46.20;10.00
67194;DHT22;54121;53.508;49.422;2022-09-01T08:05:13;45.90;10.30
67194;DHT22;54121;53.508;49.422;2022-09-01T08:07:48;45.50;10.50
67194;DHT22;54121;53.508;49.422;2022-09-01T08:10:20;45.30;10.50
67194;DHT22;54121;53.508;49.422;2022-09-01T08:12:52;44.90;10.70
67194;DHT22;54121;53.508;49.422;2022-09-01T08:15:24;44.80;11.00
67194;DHT22;54121;53.508;49.422;2022-09-01T08:17:56;45.70;10.50
67194;DHT22;54121;53.508;49.422;2022-09-01T08:20:28;44.80;11.10
67194;DHT22;54121;53.508;49.422;2022-09-01T08:23:00;44.10;11.30
67194;DHT22;54121;53.508;49.422;2022-09-01T08:25:35;43.10;12.40
67194;DHT22;54121;53.508;49.422;2022-09-01T08:28:07;44.50;11.30
67194;DHT22;54121;53.508;49.422;2022-09-01T08:30:41;45.40;10.70
67194;DHT22;54121;53.508;49.422;2022-09-01T08:33:14;45.40;10.20
67194;DHT22;54121;53.508;49.422;2022-09-01T08:35:48;45.80;10.00
67194;DHT22;54121;53.508;49.422;2022-09-01T08:38:19;45.90;10.10
67194;DHT22;54121;53.508;49.422;2022-09-01T08:40:53;45.50;10.60
67194;DHT22;54121;53.508;49.422;2022-09-01T08:44:00;45.20;10.80
67194;DHT22;54121;53.508;49.422;2022-09-01T08:46:38;45.40;10.10
67194;DHT22;54121;53.508;49.422;2022-09-01T08:49:17;44.80;10.60
67194;DHT22;54121;53.508;49.422;2022-09-01T08:54:26;45.20;10.30
67194;DHT22;54121;53.508;49.422;2022-09-01T08:57:07;45.20;10.50
67194;DHT22;54121;53.508;49.422;2022-09-01T08:59:41;45.60;10.10
67194;DHT22;54121;53.508;49.422;2022-09-01T09:05:02;45.90;9.70
67194;DHT22;54121;53.508;49.422;2022-09-01T09:07:47;45.30;10.00
67194;DHT22;54121;53.508;49.422;2022-09-01T09:13:05;45.50;10.20
67194;DHT22;54121;53.508;49.422;2022-09-01T09:15:42;45.30;10.30
67194;DHT22;54121;53.508;49.422;2022-09-01T09:21:21;44.90;11.20
67194;DHT22;54121;53.508;49.422;2022-09-01T09:24:25;44.70;11.30
67194;DHT22;54121;53.508;49.422;2022-09-01T09:26:57;45.10;11.00
67194;DHT22;54121;53.508;49.422;2022-09-01T09:29:29;44.90;10.80
67194;DHT22;54121;53.508;49.422;2022-09-01T09:32:05;44.80;11.00
67194;DHT22;54121;53.508;49.422;2022-09-01T09:34:40;45.20;10.60
67194;DHT22;54121;53.508;49.422;2022-09-01T09:40:05;45.40;10.40
67194;DHT22;54121;53.508;49.422;2022-09-01T09:43:00;45.20;10.40
67194;DHT22;54121;53.508;49.422;2022-09-01T09:45:35;44.60;11.20
67194;DHT22;54121;53.508;49.422;2022-09-01T09:48:29;45.30;10.90
67194;DHT22;54121;53.508;49.422;2022-09-01T09:51:20;45.40;10.60
67194;DHT22;54121;53.508;49.422;2022-09-01T09:54:25;44.80;11.00
67194;DHT22;54121;53.508;49.422;2022-09-01T09:57:11;44.60;11.30
67194;DHT22;54121;53.508;49.422;2022-09-01T09:59:47;44.60;11.30
67194;DHT22;54121;53.508;49.422;2022-09-01T10:02:38;43.90;11.70
67194;DHT22;54121;53.508;49.422;2022-09-01T10:08:13;43.80;12.00
67194;DHT22;54121;53.508;49.422;2022-09-01T10:10:48;44.00;11.80
67194;DHT22;54121;53.508;49.422;2022-09-01T10:13:23;43.30;12.50
67194;DHT22;54121;53.508;49.422;2022-09-01T10:15:57;42.70;13.10
67194;DHT22;54121;53.508;49.422;2022-09-01T10:18:38;42.80;12.80
67194;DHT22;54121;53.508;49.422;2022-09-01T10:21:14;43.00;13.10
67194;DHT22;54121;53.508;49.422;2022-09-01T10:23:47;42.60;13.10
67194;DHT22;54121;53.508;49.422;2022-09-01T10:26:38;42.70;13.10
67194;DHT22;54121;53.508;49.422;2022-09-01T10:29:25;42.20;13.40
67194;DHT22;54121;53.508;49.422;2022-09-01T10:32:02;41.30;14.10
67194;DHT22;54121;53.508;49.422;2022-09-01T10:34:38;42.00;13.70
67194;DHT22;54121;53.508;49.422;2022-09-01T10:37:11;41.60;13.90
67194;DHT22;54121;53.508;49.422;2022-09-01T10:42:43;41.60;13.90
67194;DHT22;54121;53.508;49.422;2022-09-01T10:45:36;41.40;13.90
67194;DHT22;54121;53.508;49.422;2022-09-01T10:53:56;41.80;13.70
67194;DHT22;54121;53.508;49.422;2022-09-01T10:56:43;41.60;13.90
67194;DHT22;54121;53.508;49.422;2022-09-01T10:59:26;41.80;13.80
67194;DHT22;54121;53.508;49.422;2022-09-01T11:02:08;41.60;13.90
67194;DHT22;54121;53.508;49.422;2022-09-01T11:10:31;41.70;14.50
67194;DHT22;54121;53.508;49.422;2022-09-01T11:16:30;41.70;14.70
67194;DHT22;54121;53.508;49.422;2022-09-01T11:19:44;41.80;14.70
67194;DHT22;54121;53.508;49.422;2022-09-01T11:25:44;41.70;14.70
67194;DHT22;54121;53.508;49.422;2022-09-01T11:28:39;41.20;14.90
67194;DHT22;54121;53.508;49.422;2022-09-01T11:31:39;41.60;14.80
67194;DHT22;54121;53.508;49.422;2022-09-01T11:34:17;41.60;14.50
67194;DHT22;54121;53.508;49.422;2022-09-01T11:36:58;41.10;14.70
67194;DHT22;54121;53.508;49.422;2022-09-01T11:39:35;41.90;14.00
67194;DHT22;54121;53.508;49.422;2022-09-01T11:42:25;42.10;13.60
67194;DHT22;54121;53.508;49.422;2022-09-01T11:45:02;42.10;13.10
67194;DHT22;54121;53.508;49.422;2022-09-01T11:47:43;42.90;12.70
67194;DHT22;54121;53.508;49.422;2022-09-01T11:50:20;43.20;12.20
67194;DHT22;54121;53.508;49.422;2022-09-01T11:55:42;42.90;12.50
67194;DHT22;54121;53.508;49.422;2022-09-01T11:58:34;42.50;12.50
67194;DHT22;54121;53.508;49.422;2022-09-01T12:04:20;41.90;13.10
67194;DHT22;54121;53.508;49.422;2022-09-01T12:07:00;42.70;12.40
67194;DHT22;54121;53.508;49.422;2022-09-01T12:09:39;42.30;12.40
67194;DHT22;54121;53.508;49.422;2022-09-01T12:12:37;42.60;12.50
67194;DHT22;54121;53.508;49.422;2022-09-01T12:15:22;43.30;11.90
67194;DHT22;54121;53.508;49.422;2022-09-01T12:18:14;43.10;11.90
67194;DHT22;54121;53.508;49.422;2022-09-01T12:20:50;43.50;11.70
67194;DHT22;54121;53.508;49.422;2022-09-01T12:23:34;43.30;11.60
67194;DHT22;54121;53.508;49.422;2022-09-01T12:26:13;43.00;12.10
67194;DHT22;54121;53.508;49.422;2022-09-01T12:28:45;42.60;12.50
67194;DHT22;54121;53.508;49.422;2022-09-01T12:31:22;42.30;13.00
67194;DHT22;54121;53.508;49.422;2022-09-01T12:33:54;41.90;13.30
67194;DHT22;54121;53.508;49.422;2022-09-01T12:36:29;42.80;12.70
67194;DHT22;54121;53.508;49.422;2022-09-01T12:42:07;42.80;12.90
67194;DHT22;54121;53.508;49.422;2022-09-01T12:52:50;43.10;13.00
67194;DHT22;54121;53.508;49.422;2022-09-01T12:55:24;43.50;13.00
67194;DHT22;54121;53.508;49.422;2022-09-01T12:57:58;43.30;12.90
67194;DHT22;54121;53.508;49.422;2022-09-01T13:03:32;43.90;12.90
67194;DHT22;54121;53.508;49.422;2022-09-01T13:06:04;43.70;12.70
67194;DHT22;54121;53.508;49.422;2022-09-01T13:08:36;44.10;12.60
67194;DHT22;54121;53.508;49.422;2022-09-01T13:11:12;44.20;12.70
67194;DHT22;54121;53.508;49.422;2022-09-01T13:13:44;43.80;12.80
67194;DHT22;54121;53.508;49.422;2022-09-01T13:16:17;44.40;12.50
67194;DHT22;54121;53.508;49.422;2022-09-01T13:18:48;44.40;12.30
67194;DHT22;54121;53.508;49.422;2022-09-01T13:21:20;44.30;12.30
67194;DHT22;54121;53.508;49.422;2022-09-01T13:23:52;44.40;12.50
67194;DHT22;54121;53.508;49.422;2022-09-01T13:26:24;44.30;12.50
67194;DHT22;54121;53.508;49.422;2022-09-01T13:28:57;44.90;12.10
67194;DHT22;54121;53.508;49.422;2022-09-01T13:31:29;44.80;12.10
67194;DHT22;54121;53.508;49.422;2022-09-01T13:34:02;44.80;12.20
67194;DHT22;54121;53.508;49.422;2022-09-01T13:36:33;44.80;12.20
67194;DHT22;54121;53.508;49.422;2022-09-01T13:39:05;45.30;12.00
67194;DHT22;54121;53.508;49.422;2022-09-01T13:41:37;44.70;12.30
67194;DHT22;54121;53.508;49.422;2022-09-01T13:44:09;44.50;12.40
67194;DHT22;54121;53.508;49.422;2022-09-01T13:46:41;44.80;12.00
67194;DHT22;54121;53.508;49.422;2022-09-01T13:49:13;45.10;11.90
67194;DHT22;54121;53.508;49.422;2022-09-01T13:51:50;45.40;11.60
67194;DHT22;54121;53.508;49.422;2022-09-01T13:54:22;45.40;11.70
67194;DHT22;54121;53.508;49.422;2022-09-01T13:56:54;45.40;11.70
67194;DHT22;54121;53.508;49.422;2022-09-01T13:59:26;45.30;11.60
67194;DHT22;54121;53.508;49.422;2022-09-01T14:01:58;44.80;12.10
67194;DHT22;54121;53.508;49.422;2022-09-01T14:04:31;45.10;11.90
67194;DHT22;54121;53.508;49.422;2022-09-01T14:07:03;45.40;11.30
67194;DHT22;54121;53.508;49.422;2022-09-01T14:09:35;45.20;11.50
67194;DHT22;54121;53.508;49.422;2022-09-01T14:12:06;45.70;11.50
67194;DHT22;54121;53.508;49.422;2022-09-01T14:14:38;45.80;11.10
67194;DHT22;54121;53.508;49.422;2022-09-01T14:17:10;46.40;10.40
67194;DHT22;54121;53.508;49.422;2022-09-01T14:19:42;45.80;10.80
67194;DHT22;54121;53.508;49.422;2022-09-01T14:22:14;46.00;10.90
67194;DHT22;54121;53.508;49.422;2022-09-01T14:24:46;45.80;10.80
67194;DHT22;54121;53.508;49.422;2022-09-01T14:27:18;45.80;11.00
67194;DHT22;54121;53.508;49.422;2022-09-01T14:29:51;45.90;10.90
67194;DHT22;54121;53.508;49.422;2022-09-01T14:32:23;45.80;11.00
67194;DHT22;54121;53.508;49.422;2022-09-01T14:34:57;45.40;11.20
67194;DHT22;54121;53.508;49.422;2022-09-01T14:37:29;45.30;11.50
67194;DHT22;54121;53.508;49.422;2022-09-01T14:40:02;45.00;11.70
67194;DHT22;54121;53.508;49.422;2022-09-01T14:42:34;44.70;11.90
67194;DHT22;54121;53.508;49.422;2022-09-01T14:45:08;44.60;12.10
67194;DHT22;54121;53.508;49.422;2022-09-01T14:47:42;44.70;11.90
67194;DHT22;54121;53.508;49.422;2022-09-01T14:50:16;44.40;12.20
67194;DHT22;54121;53.508;49.422;2022-09-01T14:52:50;44.20;12.50
67194;DHT22;54121;53.508;49.422;2022-09-01T14:55:25;44.00;12.60
67194;DHT22;54121;53.508;49.422;2022-09-01T14:57:59;43.80;12.80
67194;DHT22;54121;53.508;49.422;2022-09-01T15:00:31;43.30;13.10
67194;DHT22;54121;53.508;49.422;2022-09-01T15:03:07;43.00;13.50
67194;DHT22;54121;53.508;49.422;2022-09-01T15:05:40;43.20;13.40
67194;DHT22;54121;53.508;49.422;2022-09-01T15:08:12;43.00;13.60
67194;DHT22;54121;53.508;49.422;2022-09-01T15:10:44;42.70;13.90
67194;DHT22;54121;53.508;49.422;2022-09-01T15:13:16;42.70;13.70
67194;DHT22;54121;53.508;49.422;2022-09-01T15:15:48;42.30;13.90
67194;DHT22;54121;53.508;49.422;2022-09-01T15:18:19;42.50;14.00
67194;DHT22;54121;53.508;49.422;2022-09-01T15:20:51;42.00;14.40
67194;DHT22;54121;53.508;49.422;2022-09-01T15:23:25;41.60;14.80
67194;DHT22;54121;53.508;49.422;2022-09-01T15:25:56;42.00;14.40
67194;DHT22;54121;53.508;49.422;2022-09-01T15:28:28;42.00;14.50
67194;DHT22;54121;53.508;49.422;2022-09-01T15:31:00;41.70;14.70
67194;DHT22;54121;53.508;49.422;2022-09-01T15:33:32;41.50;14.80
67194;DHT22;54121;53.508;49.422;2022-09-01T15:36:03;41.70;14.80
67194;DHT22;54121;53.508;49.422;2022-09-01T15:38:35;41.30;15.30
67194;DHT22;54121;53.508;49.422;2022-09-01T15:41:07;40.80;15.80
67194;DHT22;54121;53.508;49.422;2022-09-01T15:43:39;40.30;16.20
67194;DHT22;54121;53.508;49.422;2022-09-01T15:46:13;40.10;16.50
67194;DHT22;54121;53.508;49.422;2022-09-01T15:48:45;40.90;16.00
67194;DHT22;54121;53.508;49.422;2022-09-01T15:51:28;41.20;16.50
67194;DHT22;54121;53.508;49.422;2022-09-01T15:54:10;41.10;15.90
67194;DHT22;54121;53.508;49.422;2022-09-01T15:56:44;40.50;16.20
67194;DHT22;54121;53.508;49.422;2022-09-01T15:59:16;40.90;16.20
67194;DHT22;54121;53.508;49.422;2022-09-01T16:01:48;40.70;16.10
67194;DHT22;54121;53.508;49.422;2022-09-01T16:04:19;40.90;16.20
67194;DHT22;54121;53.508;49.422;2022-09-01T16:06:51;40.40;16.40
67194;DHT22;54121;53.508;49.422;2022-09-01T16:09:25;40.20;16.70
67194;DHT22;54121;53.508;49.422;2022-09-01T16:11:57;40.50;16.50
67194;DHT22;54121;53.508;49.422;2022-09-01T16:14:28;40.70;16.50
67194;DHT22;54121;53.508;49.422;2022-09-01T16:17:19;40.60;16.50
67194;DHT22;54121;53.508;49.422;2022-09-01T16:20:03;40.60;16.60
67194;DHT22;54121;53.508;49.422;2022-09-01T16:22:53;40.60;16.50
67194;DHT22;54121;53.508;49.422;2022-09-01T16:25:28;39.70;17.50
67194;DHT22;54121;53.508;49.422;2022-09-01T16:28:12;39.60;17.70
67194;DHT22;54121;53.508;49.422;2022-09-01T16:30:47;39.60;17.70
67194;DHT22;54121;53.508;49.422;2022-09-01T16:33:20;40.30;17.20
67194;DHT22;54121;53.508;49.422;2022-09-01T16:38:49;40.30;16.90
67194;DHT22;54121;53.508;49.422;2022-09-01T16:44:45;40.40;17.10
67194;DHT22;54121;53.508;49.422;2022-09-01T16:47:31;40.00;17.70
67194;DHT22;54121;53.508;49.422;2022-09-01T16:56:13;39.90;18.30
67194;DHT22;54121;53.508;49.422;2022-09-01T16:59:21;39.70;18.40
67194;DHT22;54121;53.508;49.422;2022-09-01T17:05:11;40.10;17.80
67194;DHT22;54121;53.508;49.422;2022-09-01T17:10:27;39.90;18.10
67194;DHT22;54121;53.508;49.422;2022-09-01T17:13:33;39.30;18.90
67194;DHT22;54121;53.508;49.422;2022-09-01T17:16:21;39.40;18.80
67194;DHT22;54121;53.508;49.422;2022-09-01T17:19:01;38.90;19.50
67194;DHT22;54121;53.508;49.422;2022-09-01T17:21:39;38.40;20.00
67194;DHT22;54121;53.508;49.422;2022-09-01T17:27:03;37.90;19.30
67194;DHT22;54121;53.508;49.422;2022-09-01T17:29:41;37.60;19.60